Latest Weather Observations for Butlers Gorge

IDT60801

Issued at 9:41 pm EDT Saturday 23 February 2019 (issued every 10 minutes, with the page automatically refreshed every 10 minutes)

About weather observations | Map of weather stations | Latest weather observations for TAS | Other Formats
Station Details ID: 096003 Name: BUTLERS GORGE Lat: -42.28 Lon: 146.28 Height: 667.0 m
Data from the previous 72 hours. | See also: Recent months at Butlers Gorge
Date/Time
EDT
Temp
°C
App
Temp
°C
Dew
Point
°C
Rel
Hum
%
Delta-T
°C
Wind Press
QNH
hPa
Press
MSL
hPa
Rain since
9am
mm
Dir  Spd
km/h
Gust
km/h
Spd
kts
Gust
kts
23/09:30pm 11.8 8.8 4.3 60 3.5 E 9 13 5 7 - - 0.0
23/09:00pm 12.9 9.9 4.1 55 4.1 ENE 9 15 5 8 - - 0.0
23/08:30pm 13.6 11.4 3.4 50 4.8 E 4 11 2 6 - - 0.0
23/08:00pm 15.1 12.3 3.0 44 5.7 E 7 13 4 7 - - 0.0
23/07:30pm 17.1 13.4 2.3 37 6.9 E 11 19 6 10 - - 0.0
23/07:00pm 18.7 14.7 0.8 30 8.2 ESE 11 20 6 11 - - 0.0
23/06:30pm 19.8 15.4 0.3 27 9.0 ESE 13 20 7 11 - - 0.0
23/06:00pm 20.7 16.9 2.0 29 9.0 ESE 11 19 6 10 - - 0.0
23/05:30pm 21.3 18.1 3.0 30 9.0 SE 9 15 5 8 - - 0.0
23/05:00pm 21.5 18.2 2.2 28 9.3 ESE 9 17 5 9 - - 0.0
23/04:30pm 21.2 17.4 2.0 28 9.2 NE 11 17 6 9 - - 0.0
23/04:00pm 21.3 17.9 1.6 27 9.4 NE 9 15 5 8 - - 0.0
23/03:30pm 21.1 17.8 2.4 29 9.1 ESE 9 15 5 8 - - 0.0
23/03:00pm 20.2 17.2 2.1 30 8.7 E 7 13 4 7 - - 0.0
23/02:30pm 20.1 17.6 3.8 34 8.0 NNW 6 20 3 11 - - 0.0
23/02:00pm 19.8 17.4 5.1 38 7.4 NNW 7 11 4 6 - - 0.0
23/01:30pm 18.5 15.8 3.9 38 7.1 WSW 7 13 4 7 - - 0.0
23/01:00pm 18.3 15.6 5.5 43 6.5 W 9 13 5 7 - - 0.0
23/12:30pm 18.0 15.0 4.2 40 6.8 N 9 15 5 8 - - 0.0
23/12:00pm 17.0 14.1 4.7 44 6.0 N 9 13 5 7 - - 0.0
23/11:30am 15.4 12.9 5.0 50 5.1 WSW 7 15 4 8 - - 0.0
23/11:00am 14.8 12.2 6.1 56 4.3 NW 9 15 5 8 - - 0.0
23/10:30am 14.6 12.3 5.9 56 4.3 NE 7 13 4 7 - - 0.0
23/10:00am 13.5 10.7 5.2 57 4.0 ENE 9 15 5 8 - - 0.0
23/09:30am 12.9 11.3 6.3 64 3.3 E 4 9 2 5 - - 0.0
23/09:00am 11.4 10.1 5.9 69 2.7 E 2 9 1 5 - - 0.0
23/08:30am 11.5 10.3 6.6 72 2.4 SSE 2 9 1 5 - - 0.0
23/08:00am 9.8 9.2 7.4 85 1.2 CALM 0 6 0 3 - - 0.0
23/07:30am 9.7 8.7 7.5 86 1.1 SW 2 6 1 3 - - 0.0
23/07:00am 9.4 7.6 7.2 86 1.1 NNE 6 9 3 5 - - 0.0
23/06:30am 9.6 8.5 7.0 84 1.3 W 2 6 1 3 - - 0.0
23/06:00am 9.6 7.7 6.7 82 1.4 NNW 6 11 3 6 - - 0.0
23/05:30am 9.7 7.9 7.0 83 1.3 WNW 6 13 3 7 - - 0.0
23/05:00am 9.5 7.7 7.1 85 1.2 SSW 6 9 3 5 - - 0.0
23/04:30am 9.5 7.1 6.8 83 1.3 NW 9 15 5 8 - - 0.0
23/04:00am 9.4 7.4 7.0 85 1.2 NNW 7 11 4 6 - - 0.0
23/03:30am 9.1 7.1 7.1 87 1.0 NNW 7 9 4 5 - - 0.0
23/03:00am 9.0 7.0 7.1 88 0.9 N 7 9 4 5 - - 0.0
23/02:30am 9.2 7.4 7.0 86 1.1 NNW 6 9 3 5 - - 0.0
23/02:00am 9.2 7.4 7.2 87 1.0 NNW 6 9 3 5 - - 0.0
23/01:30am 7.5 6.3 6.3 92 0.6 W 2 6 1 3 - - 0.0
23/01:00am 7.7 6.1 6.3 91 0.7 WSW 4 6 2 3 - - 0.0
23/12:30am 6.9 5.8 5.2 89 0.8 CALM 0 0 0 0 - - 0.0
23/12:00am 8.2 6.2 6.3 88 0.9 WSW 6 7 3 4 - - 0.0
 
Date/Time
EDT
Temp
°C
App
Temp
°C
Dew
Point
°C
Rel
Hum
%
Delta-T
°C
Wind Press
QNH
hPa
Press
MSL
hPa
Rain since
9am
mm
Dir  Spd
km/h
Gust
km/h
Spd
kts
Gust
kts
22/11:30pm 9.1 7.1 6.2 82 1.4 NW 6 7 3 4 - - 0.0
22/11:00pm 10.1 7.7 7.2 82 1.4 SW 9 13 5 7 - - 0.0
22/10:30pm 10.1 9.1 7.5 84 1.3 WSW 2 6 1 3 - - 0.0
22/10:00pm 9.9 8.1 7.2 83 1.3 WSW 6 7 3 4 - - 0.0
22/09:30pm 9.8 7.8 7.1 83 1.3 WNW 7 9 4 5 - - 0.0
22/09:00pm 9.4 7.5 6.5 82 1.4 W 6 9 3 5 - - 0.0
22/08:30pm 9.8 8.5 6.0 77 1.8 N 2 6 1 3 - - 0.0
22/08:00pm 11.7 9.1 6.2 69 2.7 WNW 9 17 5 9 - - 0.0
22/07:30pm 12.3 9.4 6.4 67 2.9 NNW 11 20 6 11 - - 0.0
22/07:00pm 13.3 10.0 6.4 63 3.4 W 13 24 7 13 - - 0.0
22/06:30pm 13.7 11.3 6.8 63 3.5 W 9 17 5 9 - - 0.0
22/06:00pm 14.2 10.9 6.3 59 3.9 WSW 13 24 7 13 - - 0.0
22/05:30pm 14.7 11.7 7.5 62 3.7 SW 13 20 7 11 - - 0.0
22/05:00pm 14.1 12.0 8.1 67 3.1 W 9 17 5 9 - - 0.0
22/04:30pm 15.1 12.2 8.3 64 3.5 NW 13 22 7 12 - - 0.0
22/04:00pm 13.9 11.3 7.9 67 3.1 W 11 20 6 11 - - 0.0
22/03:30pm 14.7 11.4 8.2 65 3.4 NW 15 24 8 13 - - 0.0
22/03:00pm 14.5 11.2 8.2 66 3.3 WNW 15 24 8 13 - - 0.0
22/02:30pm 13.3 10.1 8.4 72 2.5 NW 15 26 8 14 - - 0.0
22/02:00pm 13.3 10.3 7.7 69 2.9 W 13 22 7 12 - - 0.0
22/01:30pm 13.2 10.1 7.4 68 2.9 WNW 13 19 7 10 - - 0.0
22/01:00pm 14.6 11.6 7.9 64 3.5 W 13 20 7 11 - - 0.0
22/12:30pm 13.9 10.4 7.2 64 3.4 NW 15 24 8 13 - - 0.0
22/12:00pm 13.5 10.5 7.5 67 3.0 WNW 13 19 7 10 - - 0.0
22/11:30am 12.6 9.5 7.3 70 2.7 NW 13 24 7 13 - - 0.0
22/11:00am 12.9 9.9 7.6 70 2.7 WNW 13 19 7 10 - - 0.0
22/10:30am 12.2 9.5 7.5 73 2.4 W 11 19 6 10 - - 0.0
22/10:00am 11.6 9.3 7.5 76 2.1 W 9 17 5 9 - - 0.0
22/09:30am 10.8 8.4 7.1 78 1.8 NW 9 17 5 9 - - 0.0
22/09:00am 10.1 7.2 6.6 79 1.7 WNW 11 20 6 11 - - 11.8
22/08:30am 9.9 7.5 6.8 81 1.5 NW 9 17 5 9 - - 11.8
22/08:00am 9.6 7.7 6.5 81 1.5 NNW 6 13 3 7 - - 11.8
22/07:30am 9.4 6.9 6.5 82 1.4 NNW 9 17 5 9 - - 11.8
22/07:00am 8.6 6.9 6.1 84 1.2 NW 4 7 2 4 - - 11.8
22/06:30am 8.5 6.4 5.8 83 1.3 W 6 15 3 8 - - 11.6
22/06:00am 8.5 6.3 6.0 84 1.2 NW 7 15 4 8 - - 11.6
22/05:30am 8.5 6.2 5.8 83 1.3 WNW 7 15 4 8 - - 11.6
22/05:00am 8.2 5.5 5.5 83 1.3 WNW 9 15 5 8 - - 11.6
22/04:30am 8.2 5.1 5.7 84 1.2 W 11 15 6 8 - - 11.6
22/04:00am 8.6 6.0 6.1 84 1.2 W 9 15 5 8 - - 11.6
22/03:30am 8.6 6.0 6.2 85 1.1 W 9 17 5 9 - - 11.6
22/03:00am 8.7 6.5 6.3 85 1.1 WNW 7 13 4 7 - - 11.6
22/02:30am 8.7 6.1 6.2 84 1.2 NW 9 17 5 9 - - 11.6
22/02:00am 8.3 6.2 6.6 89 0.8 NW 7 13 4 7 - - 11.6
22/01:30am 8.5 6.4 6.6 88 0.9 N 7 11 4 6 - - 11.6
22/01:00am 8.0 6.5 6.6 91 0.7 NNE 4 7 2 4 - - 11.6
22/12:30am 7.7 6.9 6.3 91 0.7 CALM 0 7 0 4 - - 11.6
22/12:00am 7.9 6.3 6.4 90 0.7 WNW 4 7 2 4 - - 11.6
 
Date/Time
EDT
Temp
°C
App
Temp
°C
Dew
Point
°C
Rel
Hum
%
Delta-T
°C
Wind Press
QNH
hPa
Press
MSL
hPa
Rain since
9am
mm
Dir  Spd
km/h
Gust
km/h
Spd
kts
Gust
kts
21/11:30pm 8.1 5.9 6.4 89 0.8 NNE 7 13 4 7 - - 11.6
21/11:00pm 8.0 6.1 6.6 91 0.7 NW 6 9 3 5 - - 11.6
21/10:30pm 7.6 6.3 6.2 91 0.7 WNW 2 9 1 5 - - 11.6
21/10:00pm 8.1 7.3 6.4 89 0.8 CALM 0 6 0 3 - - 11.6
21/09:30pm 8.6 7.0 6.4 86 1.1 WSW 4 7 2 4 - - 11.6
21/09:00pm 8.9 6.7 6.3 84 1.2 WSW 7 13 4 7 - - 11.6
21/08:30pm 9.1 7.6 6.7 85 1.2 W 4 11 2 6 - - 11.6
21/08:00pm 9.3 6.9 6.9 85 1.2 WSW 9 15 5 8 - - 11.6
21/07:30pm 9.4 7.3 6.7 83 1.3 WNW 7 13 4 7 - - 11.6
21/07:00pm 9.6 7.1 6.7 82 1.4 W 9 15 5 8 - - 11.6
21/06:30pm 9.7 7.0 7.5 86 1.1 WSW 11 22 6 12 - - 11.6
21/06:00pm 9.9 7.3 7.8 87 1.0 W 11 19 6 10 - - 11.6
21/05:30pm 9.8 7.6 7.9 88 0.9 W 9 17 5 9 - - 11.6
21/05:00pm 9.9 7.7 7.8 87 1.0 W 9 15 5 8 - - 10.4
21/04:30pm 10.1 8.3 7.3 83 1.4 W 6 7 3 4 - - 9.4
21/04:00pm 10.0 8.3 7.6 85 1.2 SW 6 11 3 6 - - 9.4
21/03:30pm 10.3 7.2 7.2 81 1.5 SW 13 26 7 14 - - 8.8
21/03:00pm 10.1 7.3 7.0 81 1.5 SW 11 20 6 11 - - 8.8
21/02:30pm 11.0 8.3 7.5 79 1.7 WSW 11 20 6 11 - - 8.6
21/02:00pm 10.2 7.7 8.1 87 1.1 WNW 11 26 6 14 - - 7.4
21/01:30pm 10.2 8.5 8.3 88 1.0 W 7 15 4 8 - - 5.2
21/01:00pm 10.0 8.1 7.6 85 1.2 WSW 7 11 4 6 - - 3.8
21/12:30pm 9.6 6.5 7.2 85 1.2 WSW 13 30 7 16 - - 3.6
21/12:00pm 9.2 5.6 6.6 84 1.3 W 15 30 8 16 - - 2.8
21/11:30am 9.2 6.1 7.3 88 0.9 NW 13 20 7 11 - - 2.4
21/11:00am 8.8 6.4 6.8 87 1.0 WNW 9 19 5 10 - - 1.6
21/10:30am 8.7 6.2 6.5 86 1.1 NW 9 20 5 11 - - 1.0
21/10:00am 8.1 5.5 6.1 87 0.9 WNW 9 24 5 13 - - 0.6
21/09:30am 7.9 4.8 5.7 86 1.0 NW 11 20 6 11 - - 0.2
21/09:00am 7.8 5.0 5.3 84 1.2 WNW 9 19 5 10 - - 2.4
21/08:30am 8.0 4.4 4.8 80 1.5 W 13 24 7 13 - - 2.0
21/08:00am 7.4 4.3 5.5 88 0.9 WNW 11 24 6 13 - - 2.0
21/07:30am 7.3 4.5 5.3 87 0.9 W 9 17 5 9 - - 1.6
21/07:00am 7.3 4.0 4.3 81 1.4 WNW 11 20 6 11 - - 1.4
21/06:30am 7.5 4.8 3.6 76 1.7 WNW 7 15 4 8 - - 1.4
21/06:00am 7.2 4.0 3.3 76 1.7 WNW 9 22 5 12 - - 1.4
21/05:30am 6.8 4.3 4.5 85 1.0 WSW 7 13 4 7 - - 1.4
21/05:00am 6.8 4.0 3.4 79 1.5 W 7 17 4 9 - - 1.2
21/04:30am 6.3 3.3 4.0 85 1.0 WSW 9 15 5 8 - - 1.2
21/04:00am 6.6 3.7 4.4 86 1.0 W 9 17 5 9 - - 1.0
21/03:30am 6.9 3.5 3.9 81 1.3 WNW 11 19 6 10 - - 0.8
21/03:00am 6.9 3.4 3.3 78 1.6 W 11 20 6 11 - - 0.8
21/02:30am 6.6 4.2 4.1 84 1.1 W 6 13 3 7 - - 0.8
21/02:00am 7.0 4.2 3.1 76 1.7 WNW 7 13 4 7 - - 0.4
21/01:30am 7.5 3.4 2.2 69 2.3 W 13 28 7 15 - - 0.4
21/01:00am 7.4 3.7 2.1 69 2.3 WNW 11 26 6 14 - - 0.4
21/12:30am 7.3 3.6 2.2 70 2.2 WSW 11 20 6 11 - - 0.4
21/12:00am 7.6 3.6 2.7 71 2.1 WSW 13 22 7 12 - - 0.4
 
Date/Time
EDT
Temp
°C
App
Temp
°C
Dew
Point
°C
Rel
Hum
%
Delta-T
°C
Wind Press
QNH
hPa
Press
MSL
hPa
Rain since
9am
mm
Dir  Spd
km/h
Gust
km/h
Spd
kts
Gust
kts
20/11:30pm 7.6 4.0 2.7 71 2.1 W 11 20 6 11 - - 0.4
20/11:00pm 7.5 4.3 2.8 72 2.1 W 9 19 5 10 - - 0.4
20/10:30pm 7.6 4.3 2.5 70 2.2 W 9 17 5 9 - - 0.4
20/10:00pm 7.8 3.7 2.1 67 2.5 WSW 13 24 7 13 - - 0.4

Other formats

Comma delimited format used in spreadsheet applications
http://www.bom.gov.au/fwo/IDT60801/IDT60801.94959.axf

JavaScript Object Notation format (JSON) in row-major order
http://www.bom.gov.au/fwo/IDT60801/IDT60801.94959.json

Data quality

Most of these data are generated automatically and are frequently updated. Quality checks on data are not normally performed. It is possible for incorrect values to appear. Refer to information at About Latest Weather Observations and please check the disclaimer before using these data.